createdAt,value
2018-01-08T00:00:28.346Z,15.47
2018-01-08T00:02:55.914Z,17.80
2018-01-08T00:05:23.470Z,14.87
2018-01-08T00:07:51.097Z,16.13
2018-01-08T00:10:20.625Z,16.40
2018-01-08T00:12:48.242Z,15.63
2018-01-08T00:15:15.816Z,16.27
2018-01-08T00:17:43.382Z,16.30
2018-01-08T00:20:10.990Z,18.90
2018-01-08T00:22:38.546Z,16.27
2018-01-08T00:25:07.074Z,16.03
2018-01-08T00:27:34.767Z,15.73
2018-01-08T00:30:02.366Z,16.23
2018-01-08T00:32:30.696Z,16.03
2018-01-08T00:34:58.313Z,16.57
2018-01-08T00:37:25.998Z,15.80
2018-01-08T00:39:53.563Z,17.23
2018-01-08T00:42:21.297Z,17.00
2018-01-08T00:44:48.890Z,16.30
2018-01-08T00:47:16.455Z,15.10
2018-01-08T00:49:44.041Z,18.70
2018-01-08T00:52:11.599Z,16.70
2018-01-08T00:54:39.197Z,18.53
2018-01-08T00:57:06.788Z,16.93
2018-01-08T00:59:34.367Z,18.03
2018-01-08T01:02:01.967Z,17.07
2018-01-08T01:04:29.542Z,15.83
2018-01-08T01:06:57.105Z,18.17
2018-01-08T01:09:24.691Z,16.37
2018-01-08T01:11:52.263Z,18.00
2018-01-08T01:14:19.860Z,20.30
2018-01-08T01:16:47.511Z,19.00
2018-01-08T01:19:15.954Z,16.70
2018-01-08T01:21:43.531Z,18.57
2018-01-08T01:24:11.154Z,18.20
2018-01-08T01:26:38.747Z,15.77
2018-01-08T01:29:06.417Z,17.43
2018-01-08T01:31:34.947Z,17.70
2018-01-08T01:34:02.512Z,16.30
2018-01-08T01:36:30.211Z,17.37
2018-01-08T01:38:58.810Z,17.73
2018-01-08T01:41:27.175Z,18.23
2018-01-08T01:43:54.796Z,18.53
2018-01-08T01:46:22.367Z,18.77
2018-01-08T01:48:49.992Z,17.40
2018-01-08T01:51:17.656Z,18.90
2018-01-08T01:53:45.263Z,17.80
2018-01-08T01:56:12.823Z,16.63
2018-01-08T01:58:40.382Z,18.97
2018-01-08T02:01:07.982Z,19.77
2018-01-08T02:03:35.666Z,17.23
2018-01-08T02:06:03.263Z,17.97
2018-01-08T02:08:30.823Z,16.57
2018-01-08T02:10:58.396Z,18.03
2018-01-08T02:13:26.759Z,17.23
2018-01-08T02:15:54.412Z,16.30
2018-01-08T02:18:21.998Z,15.97
2018-01-08T02:20:50.317Z,15.70
2018-01-08T02:23:17.875Z,19.07
2018-01-08T02:25:45.562Z,18.20
2018-01-08T02:28:13.127Z,17.43
2018-01-08T02:30:40.694Z,16.33
2018-01-08T02:33:08.283Z,17.93
2018-01-08T02:35:35.858Z,17.93
2018-01-08T02:38:03.454Z,17.27
2018-01-08T02:40:31.026Z,16.73
2018-01-08T02:42:58.623Z,18.00
2018-01-08T02:45:26.292Z,19.03
2018-01-08T02:47:53.969Z,20.50
2018-01-08T02:50:21.578Z,19.63
2018-01-08T02:52:49.911Z,17.47
2018-01-08T02:55:17.491Z,17.80
2018-01-08T02:57:45.311Z,18.10
2018-01-08T03:00:12.994Z,17.90
2018-01-08T03:02:40.567Z,18.00
2018-01-08T03:05:08.150Z,17.17
2018-01-08T03:07:36.510Z,17.47
2018-01-08T03:10:04.070Z,16.00
2018-01-08T03:12:31.684Z,15.03
2018-01-08T03:14:59.255Z,16.77
2018-01-08T03:17:26.882Z,18.20
2018-01-08T03:19:54.450Z,18.00
2018-01-08T03:22:22.124Z,19.37
2018-01-08T03:24:49.888Z,17.57
2018-01-08T03:27:17.449Z,17.50
2018-01-08T03:29:45.067Z,18.70
2018-01-08T03:32:13.398Z,17.50
2018-01-08T03:34:40.991Z,18.17
2018-01-08T03:37:08.590Z,18.60
2018-01-08T03:39:36.164Z,17.37
2018-01-08T03:42:03.758Z,18.20
2018-01-08T03:44:31.326Z,17.23
2018-01-08T03:46:58.875Z,18.20
2018-01-08T03:49:26.459Z,18.57
2018-01-08T03:51:54.786Z,17.73
2018-01-08T03:54:22.391Z,18.90
2018-01-08T03:56:50.713Z,17.87
2018-01-08T03:59:18.268Z,19.07
2018-01-08T04:01:45.843Z,17.87
2018-01-08T04:04:13.412Z,19.70
2018-01-08T04:06:41.008Z,18.57
2018-01-08T04:09:09.343Z,21.00
2018-01-08T04:11:36.973Z,18.90
2018-01-08T04:14:04.538Z,18.10
2018-01-08T04:16:32.095Z,18.60
2018-01-08T04:18:59.750Z,18.20
2018-01-08T04:21:27.430Z,19.30
2018-01-08T04:23:55.023Z,18.40
2018-01-08T04:26:22.694Z,20.97
2018-01-08T04:28:51.063Z,17.77
2018-01-08T04:31:18.737Z,18.50
2018-01-08T04:33:46.267Z,19.63
2018-01-08T04:36:13.886Z,20.87
2018-01-08T04:38:41.448Z,17.87
2018-01-08T04:41:09.042Z,19.40
2018-01-08T04:43:36.648Z,20.10
2018-01-08T04:46:04.344Z,19.63
2018-01-08T04:48:31.927Z,20.93
2018-01-08T04:50:59.490Z,20.20
2018-01-08T04:53:27.270Z,18.97
2018-01-08T04:55:55.599Z,20.03
2018-01-08T04:58:23.217Z,19.13
2018-01-08T05:00:50.799Z,19.43
2018-01-08T05:03:18.358Z,20.17
2018-01-08T05:05:45.991Z,17.93
2018-01-08T05:08:14.319Z,18.30
2018-01-08T05:10:41.871Z,18.67
2018-01-08T05:13:09.477Z,19.83
2018-01-08T05:15:37.818Z,20.10
2018-01-08T05:18:05.420Z,19.20
2018-01-08T05:20:33.784Z,19.83
2018-01-08T05:23:02.142Z,19.60
2018-01-08T05:25:29.722Z,20.97
2018-01-08T05:27:58.098Z,20.03
2018-01-08T05:30:26.424Z,19.30
2018-01-08T05:32:54.019Z,19.20
2018-01-08T05:35:21.586Z,19.90
2018-01-08T05:37:49.293Z,18.83
2018-01-08T05:40:16.857Z,19.87
2018-01-08T05:42:44.513Z,20.53
2018-01-08T05:45:12.114Z,19.80
2018-01-08T05:47:39.719Z,19.27
2018-01-08T05:50:07.308Z,18.97
2018-01-08T05:52:34.899Z,19.00
2018-01-08T05:55:02.568Z,20.30
2018-01-08T05:57:30.167Z,21.40
2018-01-08T05:59:57.736Z,20.13
2018-01-08T06:02:25.308Z,20.80
2018-01-08T06:04:53.050Z,19.40
2018-01-08T06:07:20.642Z,21.00
2018-01-08T06:09:48.274Z,19.97
2018-01-08T06:12:15.927Z,17.93
2018-01-08T06:14:43.504Z,19.50
2018-01-08T06:17:11.106Z,20.00
2018-01-08T06:19:39.430Z,20.30
2018-01-08T06:22:07.034Z,21.07
2018-01-08T06:24:35.172Z,20.77
2018-01-08T06:27:02.819Z,19.40
2018-01-08T06:29:30.414Z,22.13
2018-01-08T06:31:58.768Z,21.17
2018-01-08T06:34:26.374Z,21.27
2018-01-08T06:36:54.716Z,20.27
2018-01-08T06:39:22.291Z,20.23
2018-01-08T06:41:49.879Z,21.60
2018-01-08T06:44:18.279Z,22.53
2018-01-08T06:46:45.951Z,20.93
2018-01-08T06:49:13.509Z,19.87
2018-01-08T06:51:41.363Z,19.30
2018-01-08T06:54:09.088Z,19.13
2018-01-08T06:56:37.438Z,19.40
2018-01-08T06:59:04.999Z,20.67
2018-01-08T07:01:32.594Z,21.20
2018-01-08T07:04:00.924Z,20.83
2018-01-08T07:06:28.555Z,19.33
2018-01-08T07:08:56.225Z,21.50
2018-01-08T07:11:24.083Z,20.07
2018-01-08T07:13:51.702Z,19.70
2018-01-08T07:16:19.259Z,18.83
2018-01-08T07:18:46.862Z,19.37
2018-01-08T07:21:14.418Z,19.70
2018-01-08T07:23:41.970Z,17.43
2018-01-08T07:26:09.558Z,20.33
2018-01-08T07:28:37.184Z,20.10
2018-01-08T07:31:04.762Z,19.63
2018-01-08T07:33:32.386Z,18.93
2018-01-08T07:36:00.720Z,18.53
2018-01-08T07:38:28.282Z,18.87
2018-01-08T07:40:56.011Z,20.23
2018-01-08T07:43:23.573Z,19.80
2018-01-08T07:45:51.163Z,18.57
2018-01-08T07:48:18.730Z,18.73
2018-01-08T07:50:46.350Z,18.00
2018-01-08T07:53:13.911Z,22.10
2018-01-08T07:55:41.466Z,18.77
2018-01-08T07:58:09.048Z,19.33
2018-01-08T08:00:36.628Z,19.43
2018-01-08T08:03:04.230Z,17.00
2018-01-08T08:05:31.899Z,17.07
2018-01-08T08:07:59.451Z,18.63
2018-01-08T08:10:27.028Z,19.77
2018-01-08T08:12:54.623Z,19.27
2018-01-08T08:15:22.179Z,19.07
2018-01-08T08:17:49.763Z,17.03
2018-01-08T08:20:18.094Z,16.80
2018-01-08T08:22:45.822Z,20.73
2018-01-08T08:25:13.388Z,16.73
2018-01-08T08:27:41.050Z,17.80
2018-01-08T08:30:08.711Z,19.43
2018-01-08T08:32:36.267Z,20.93
2018-01-08T08:35:03.828Z,19.27
2018-01-08T08:37:31.428Z,20.17
2018-01-08T08:40:00.498Z,17.30
2018-01-08T08:42:28.202Z,19.90
2018-01-08T08:44:55.755Z,17.87
2018-01-08T08:47:23.462Z,20.93
2018-01-08T08:49:51.122Z,22.20
2018-01-08T08:52:18.783Z,19.20
2018-01-08T08:54:46.431Z,11.80
2018-01-08T08:57:14.022Z,19.12
2018-01-08T08:59:41.605Z,19.40
2018-01-08T09:02:09.215Z,16.70
2018-01-08T09:04:36.884Z,16.57
2018-01-08T09:07:04.435Z,16.27
2018-01-08T09:09:32.031Z,13.87
2018-01-08T09:11:59.634Z,17.40
2018-01-08T09:14:28.160Z,16.97
2018-01-08T09:16:55.726Z,14.57
2018-01-08T09:19:23.301Z,17.93
2018-01-08T09:21:50.911Z,16.90
2018-01-08T09:24:18.507Z,18.03
2018-01-08T09:26:46.078Z,19.00
2018-01-08T09:29:13.690Z,16.80
2018-01-08T09:31:41.254Z,15.90
2018-01-08T09:34:08.846Z,16.90
2018-01-08T09:36:36.468Z,14.77
2018-01-08T09:39:04.094Z,18.27
2018-01-08T09:41:32.487Z,16.40
2018-01-08T09:44:00.074Z,17.67
2018-01-08T09:46:27.666Z,18.10
2018-01-08T09:48:55.386Z,19.17
2018-01-08T09:51:22.986Z,17.03
2018-01-08T09:53:50.551Z,17.63
2018-01-08T09:56:18.129Z,16.70
2018-01-08T09:58:46.512Z,16.87
2018-01-08T10:01:38.118Z,18.37
2018-01-08T10:04:17.699Z,13.77
2018-01-08T10:06:57.043Z,17.27
2018-01-08T10:09:36.348Z,16.03
2018-01-08T10:12:16.692Z,15.40
2018-01-08T10:14:56.226Z,15.90
2018-01-08T10:17:35.706Z,16.10
2018-01-08T10:20:03.303Z,16.53
2018-01-08T10:22:30.858Z,17.60
2018-01-08T10:24:58.567Z,16.23
2018-01-08T10:27:26.132Z,17.33
2018-01-08T10:29:53.753Z,16.90
2018-01-08T10:32:22.106Z,17.60
2018-01-08T10:34:49.844Z,14.07
2018-01-08T10:37:17.431Z,16.70
2018-01-08T10:39:45.028Z,18.33
2018-01-08T10:42:18.867Z,16.43
2018-01-08T10:44:52.139Z,16.63
2018-01-08T10:47:25.282Z,16.00
2018-01-08T10:49:58.520Z,17.23
2018-01-08T10:52:25.575Z,18.70
2018-01-08T10:54:53.241Z,16.83
2018-01-08T10:57:20.855Z,15.87
2018-01-08T10:59:48.430Z,16.30
2018-01-08T11:02:22.365Z,17.97
2018-01-08T11:04:49.930Z,17.63
2018-01-08T11:07:17.484Z,16.70
2018-01-08T11:09:45.109Z,17.47
2018-01-08T11:12:13.494Z,17.20
2018-01-08T11:14:41.859Z,18.57
2018-01-08T11:17:10.191Z,15.77
2018-01-08T11:19:37.750Z,18.87
2018-01-08T11:22:05.327Z,19.03
2018-01-08T11:24:32.891Z,17.90
2018-01-08T11:27:00.505Z,17.73
2018-01-08T11:29:28.076Z,17.70
2018-01-08T11:31:55.851Z,17.10
2018-01-08T11:34:23.439Z,17.93
2018-01-08T11:36:52.074Z,17.87
2018-01-08T11:39:19.735Z,18.23
2018-01-08T11:41:47.298Z,18.07
2018-01-08T11:44:14.940Z,17.07
2018-01-08T11:46:42.587Z,17.33
2018-01-08T11:49:10.974Z,17.83
2018-01-08T11:51:38.570Z,17.57
2018-01-08T11:54:06.147Z,18.50
2018-01-08T11:56:33.746Z,18.00
2018-01-08T11:59:01.323Z,17.03
2018-01-08T12:01:28.878Z,17.37
2018-01-08T12:03:56.498Z,18.70
2018-01-08T12:06:24.066Z,18.30
2018-01-08T12:08:52.530Z,19.10
2018-01-08T12:11:20.103Z,17.10
2018-01-08T12:13:47.762Z,17.30
2018-01-08T12:16:16.134Z,17.77
2018-01-08T12:18:44.455Z,16.90
2018-01-08T12:21:12.103Z,17.60
2018-01-08T12:23:39.878Z,17.67
2018-01-08T12:26:07.460Z,16.30
2018-01-08T12:28:35.074Z,16.53
2018-01-08T12:31:02.858Z,17.33
2018-01-08T12:33:30.418Z,17.20
2018-01-08T12:35:58.080Z,16.57
2018-01-08T12:38:25.689Z,15.87
2018-01-08T12:40:54.768Z,16.00
2018-01-08T12:43:22.328Z,17.70
2018-01-08T12:45:50.055Z,17.43
2018-01-08T12:48:17.611Z,17.40
2018-01-08T12:50:45.199Z,16.87
2018-01-08T12:53:12.755Z,15.90
2018-01-08T12:55:40.354Z,15.67
2018-01-08T12:58:08.744Z,16.40
2018-01-08T13:00:37.079Z,16.10
2018-01-08T13:03:04.686Z,14.73
2018-01-08T13:05:32.270Z,16.53
2018-01-08T13:07:59.838Z,15.03
2018-01-08T13:10:27.436Z,16.50
2018-01-08T13:12:54.999Z,16.33
2018-01-08T13:15:23.425Z,15.37
2018-01-08T13:17:50.982Z,15.13
2018-01-08T13:20:18.630Z,14.87
2018-01-08T13:22:46.266Z,15.17
2018-01-08T13:25:14.590Z,15.43
2018-01-08T13:27:42.194Z,16.60
2018-01-08T13:30:10.555Z,15.90
2018-01-08T13:32:38.206Z,15.77
2018-01-08T13:35:05.798Z,15.73
2018-01-08T13:37:34.122Z,16.53
2018-01-08T13:40:01.713Z,15.17
2018-01-08T13:42:29.285Z,15.83
2018-01-08T13:44:57.672Z,16.50
2018-01-08T13:47:26.006Z,17.53
2018-01-08T13:49:53.583Z,15.13
2018-01-08T13:52:22.099Z,14.93
2018-01-08T13:54:49.658Z,16.27
2018-01-08T13:57:17.254Z,15.43
2018-01-08T13:59:44.820Z,16.03
2018-01-08T14:02:12.439Z,16.53
2018-01-08T14:04:40.039Z,16.17
2018-01-08T14:07:08.526Z,15.03
2018-01-08T14:09:36.116Z,16.30
2018-01-08T14:12:04.476Z,16.03
2018-01-08T14:14:32.092Z,15.80
2018-01-08T14:16:59.738Z,15.50
2018-01-08T14:19:27.338Z,15.50
2018-01-08T14:21:55.067Z,17.07
2018-01-08T14:24:22.643Z,15.60
2018-01-08T14:26:50.223Z,15.80
2018-01-08T14:29:18.647Z,16.40
2018-01-08T14:31:46.215Z,15.20
2018-01-08T14:34:13.774Z,17.20
2018-01-08T14:36:41.441Z,14.73
2018-01-08T14:39:09.223Z,16.23
2018-01-08T14:41:36.788Z,16.10
2018-01-08T14:44:04.422Z,17.07
2018-01-08T14:46:32.004Z,16.90
2018-01-08T14:48:59.608Z,17.50
2018-01-08T14:51:27.937Z,16.70
2018-01-08T14:53:55.507Z,16.50
2018-01-08T14:56:23.122Z,16.73
2018-01-08T14:58:50.789Z,17.30
2018-01-08T15:01:18.409Z,16.37
2018-01-08T15:03:45.965Z,15.13
2018-01-08T15:06:13.523Z,14.10
2018-01-08T15:08:41.123Z,16.33
2018-01-08T15:11:08.674Z,13.93
2018-01-08T15:13:36.270Z,18.50
2018-01-08T15:16:03.970Z,15.27
2018-01-08T15:18:32.587Z,13.57
2018-01-08T15:21:00.247Z,15.10
2018-01-08T15:23:27.811Z,14.70
2018-01-08T15:25:55.407Z,11.00
2018-01-08T15:28:22.978Z,13.47
2018-01-08T15:30:50.570Z,14.07
2018-01-08T15:33:18.241Z,13.50
2018-01-08T15:35:45.790Z,10.27
2018-01-08T15:38:13.358Z,16.60
2018-01-08T15:40:41.020Z,12.80
2018-01-08T15:43:08.607Z,14.40
2018-01-08T15:45:36.178Z,13.43
2018-01-08T15:48:03.796Z,14.07
2018-01-08T15:50:31.351Z,13.77
2018-01-08T15:52:58.969Z,12.73
2018-01-08T15:55:26.572Z,13.10
2018-01-08T15:57:54.128Z,13.90
2018-01-08T16:00:21.749Z,13.77
2018-01-08T16:02:49.308Z,14.43
2018-01-08T16:05:17.728Z,14.17
2018-01-08T16:07:45.318Z,12.83
2018-01-08T16:10:12.899Z,15.20
2018-01-08T16:12:40.499Z,15.23
2018-01-08T16:15:08.068Z,13.10
2018-01-08T16:17:35.684Z,18.03
2018-01-08T16:20:04.020Z,15.90
2018-01-08T16:22:31.599Z,14.77
2018-01-08T16:24:59.230Z,14.33
2018-01-08T16:27:27.048Z,14.13
2018-01-08T16:29:54.660Z,16.77
2018-01-08T16:32:22.246Z,16.10
2018-01-08T16:34:49.878Z,14.97
2018-01-08T16:37:17.452Z,14.37
2018-01-08T16:39:45.027Z,16.27
2018-01-08T16:42:12.765Z,15.60
2018-01-08T16:44:40.346Z,16.00
2018-01-08T16:47:07.913Z,14.80
2018-01-08T16:49:36.273Z,14.73
2018-01-08T16:52:03.866Z,15.40
2018-01-08T16:54:32.270Z,16.10
2018-01-08T16:56:59.931Z,13.50
2018-01-08T16:59:27.515Z,16.70
2018-01-08T17:01:55.152Z,14.60
2018-01-08T17:04:22.798Z,15.53
2018-01-08T17:06:50.378Z,17.53
2018-01-08T17:09:17.970Z,14.07
2018-01-08T17:11:45.538Z,15.63
2018-01-08T17:14:13.870Z,13.60
2018-01-08T17:16:41.522Z,14.93
2018-01-08T17:19:09.099Z,14.60
2018-01-08T17:21:36.734Z,14.80
2018-01-08T17:24:04.307Z,14.70
2018-01-08T17:26:31.936Z,16.03
2018-01-08T17:29:00.338Z,15.10
2018-01-08T17:31:27.912Z,15.87
2018-01-08T17:33:55.506Z,14.53
2018-01-08T17:36:23.115Z,14.50
2018-01-08T17:38:50.707Z,13.67
2018-01-08T17:41:18.347Z,15.27
2018-01-08T17:43:46.071Z,13.80
2018-01-08T17:46:14.540Z,13.13
2018-01-08T17:48:42.883Z,15.40
2018-01-08T17:51:10.478Z,16.40
2018-01-08T17:53:38.815Z,14.10
2018-01-08T17:56:06.446Z,15.57
2018-01-08T17:58:34.107Z,13.60
2018-01-08T18:01:01.679Z,14.00
2018-01-08T18:03:29.283Z,13.30
2018-01-08T18:05:56.947Z,15.00
2018-01-08T18:08:24.540Z,13.00
2018-01-08T18:10:52.099Z,14.47
2018-01-08T18:13:19.719Z,14.30
2018-01-08T18:15:47.388Z,14.30
2018-01-08T18:18:15.831Z,14.70
2018-01-08T18:20:43.460Z,13.97
2018-01-08T18:23:11.032Z,14.97
2018-01-08T18:25:38.683Z,14.03
2018-01-08T18:28:06.263Z,14.60
2018-01-08T18:30:33.860Z,14.53
2018-01-08T18:33:02.222Z,15.13
2018-01-08T18:35:29.795Z,14.40
2018-01-08T18:37:57.598Z,15.40
2018-01-08T18:40:25.199Z,13.17
2018-01-08T18:42:52.821Z,14.27
2018-01-08T18:45:20.574Z,13.33
2018-01-08T18:47:48.240Z,14.20
2018-01-08T18:50:15.875Z,14.23
2018-01-08T18:52:44.250Z,13.93
2018-01-08T18:55:12.623Z,14.43
2018-01-08T18:57:40.995Z,13.00
2018-01-08T19:00:09.354Z,13.27
2018-01-08T19:02:37.171Z,13.60
2018-01-08T19:05:04.759Z,14.93
2018-01-08T19:07:32.338Z,14.93
2018-01-08T19:09:59.975Z,14.67
2018-01-08T19:12:27.579Z,13.50
2018-01-08T19:14:55.985Z,12.33
2018-01-08T19:17:23.542Z,12.13
2018-01-08T19:19:51.164Z,12.93
2018-01-08T19:22:19.510Z,13.13
2018-01-08T19:24:47.083Z,15.67
2018-01-08T19:27:15.627Z,13.60
2018-01-08T19:29:43.222Z,13.77
2018-01-08T19:32:10.944Z,13.70
2018-01-08T19:34:38.541Z,12.53
2018-01-08T19:37:06.368Z,13.30
2018-01-08T19:39:34.029Z,12.70
2018-01-08T19:42:01.636Z,13.70
2018-01-08T19:44:29.283Z,12.53
2018-01-08T19:46:56.979Z,14.60
2018-01-08T19:49:25.363Z,14.07
2018-01-08T19:51:53.797Z,13.60
2018-01-08T19:54:21.362Z,13.60
2018-01-08T19:56:48.971Z,13.53
2018-01-08T19:59:16.526Z,14.90
2018-01-08T20:01:44.123Z,14.40
2018-01-08T20:04:11.703Z,15.07
2018-01-08T20:06:39.310Z,15.30
2018-01-08T20:09:06.922Z,15.20
2018-01-08T20:11:34.520Z,14.03
2018-01-08T20:14:02.122Z,17.10
2018-01-08T20:16:29.697Z,14.80
2018-01-08T20:18:57.336Z,14.70
2018-01-08T20:21:24.905Z,19.20
2018-01-08T20:23:52.471Z,17.10
2018-01-08T20:26:20.086Z,15.33
2018-01-08T20:28:47.677Z,14.77
2018-01-08T20:31:15.310Z,17.60
2018-01-08T20:33:42.971Z,16.63
2018-01-08T20:36:10.553Z,15.70
2018-01-08T20:38:38.177Z,16.73
2018-01-08T20:41:05.744Z,16.73
2018-01-08T20:43:33.326Z,17.37
2018-01-08T20:46:00.935Z,16.33
2018-01-08T20:48:29.342Z,16.80
2018-01-08T20:50:56.967Z,20.50
2018-01-08T20:53:25.295Z,17.60
2018-01-08T20:55:52.882Z,16.57
2018-01-08T20:58:20.535Z,16.83
2018-01-08T21:00:48.111Z,17.67
2018-01-08T21:03:16.459Z,18.30
2018-01-08T21:05:44.153Z,17.37
2018-01-08T21:08:11.748Z,18.80
2018-01-08T21:10:39.342Z,17.87
2018-01-08T21:13:06.956Z,17.43
2018-01-08T21:15:34.557Z,17.30
2018-01-08T21:18:02.139Z,17.03
2018-01-08T21:20:29.756Z,17.43
2018-01-08T21:22:57.319Z,18.23
2018-01-08T21:25:24.942Z,18.53
2018-01-08T21:27:53.274Z,18.43
2018-01-08T21:30:21.109Z,18.70
2018-01-08T21:32:48.719Z,17.50
2018-01-08T21:35:16.363Z,18.80
2018-01-08T21:37:44.036Z,18.07
2018-01-08T21:40:11.671Z,19.33
2018-01-08T21:42:39.434Z,18.37
2018-01-08T21:45:07.070Z,19.37
2018-01-08T21:47:34.747Z,17.63
2018-01-08T21:50:03.407Z,18.93
2018-01-08T21:52:31.015Z,20.40
2018-01-08T21:54:58.730Z,19.00
2018-01-08T21:57:26.397Z,20.33
2018-01-08T21:59:53.971Z,20.93
2018-01-08T22:02:21.615Z,20.97
2018-01-08T22:04:49.270Z,21.10
2018-01-08T22:07:16.839Z,21.83
2018-01-08T22:09:44.628Z,18.83
2018-01-08T22:12:12.997Z,19.80
2018-01-08T22:14:40.624Z,18.43
2018-01-08T22:17:08.220Z,18.00
2018-01-08T22:19:35.794Z,17.17
2018-01-08T22:22:03.399Z,19.60
2018-01-08T22:24:31.038Z,18.93
2018-01-08T22:26:59.525Z,18.30
2018-01-08T22:29:28.033Z,19.53
2018-01-08T22:31:55.739Z,18.87
2018-01-08T22:34:23.343Z,19.17
2018-01-08T22:36:51.017Z,18.40
2018-01-08T22:39:18.623Z,18.70
2018-01-08T22:41:46.213Z,18.50
2018-01-08T22:44:14.550Z,18.80
2018-01-08T22:46:42.227Z,20.47
2018-01-08T22:49:09.788Z,19.40
2018-01-08T22:51:37.400Z,20.77
2018-01-08T22:54:04.996Z,18.80
2018-01-08T22:56:32.583Z,19.97
2018-01-08T22:59:00.928Z,19.03
2018-01-08T23:01:28.589Z,19.73
2018-01-08T23:03:56.178Z,21.90
2018-01-08T23:06:24.534Z,19.60
2018-01-08T23:08:52.931Z,19.87
2018-01-08T23:11:21.268Z,18.30
2018-01-08T23:13:48.843Z,19.00
2018-01-08T23:16:16.448Z,18.63
2018-01-08T23:18:44.008Z,19.30
2018-01-08T23:21:11.571Z,19.10
2018-01-08T23:23:39.172Z,20.77
2018-01-08T23:26:06.730Z,20.20
2018-01-08T23:28:34.348Z,18.43
2018-01-08T23:31:01.939Z,20.77
2018-01-08T23:33:29.519Z,19.23
2018-01-08T23:35:57.995Z,19.57
2018-01-08T23:38:25.704Z,18.57
2018-01-08T23:40:53.267Z,19.60
2018-01-08T23:43:20.925Z,19.87
2018-01-08T23:45:48.585Z,19.43
2018-01-08T23:48:16.140Z,20.20
2018-01-08T23:50:43.783Z,22.07
2018-01-08T23:53:11.306Z,20.60
2018-01-08T23:55:38.935Z,20.23
2018-01-08T23:58:06.500Z,20.83
